createdAt,value
2018-08-16T00:00:04.800Z,19.63
2018-08-16T00:02:37.960Z,20.83
2018-08-16T00:05:12.293Z,20.70
2018-08-16T00:07:48.234Z,19.80
2018-08-16T00:10:22.599Z,21.07
2018-08-16T00:12:56.323Z,22.65
2018-08-16T00:15:31.196Z,22.35
2018-08-16T00:18:05.045Z,24.40
2018-08-16T00:20:40.306Z,23.37
2018-08-16T00:23:14.205Z,23.20
2018-08-16T00:25:48.019Z,23.87
2018-08-16T00:28:23.134Z,24.20
2018-08-16T00:30:57.082Z,22.83
2018-08-16T00:33:31.474Z,24.33
2018-08-16T00:36:06.128Z,26.90
2018-08-16T00:38:40.380Z,25.70
2018-08-16T00:41:16.219Z,24.90
2018-08-16T00:43:50.123Z,26.53
2018-08-16T00:46:25.734Z,25.37
2018-08-16T00:49:00.049Z,26.27
2018-08-16T00:51:33.696Z,26.10
2018-08-16T00:54:08.944Z,26.23
2018-08-16T00:56:42.619Z,27.87
2018-08-16T00:59:16.430Z,28.03
2018-08-16T01:01:50.201Z,27.83
2018-08-16T01:04:23.998Z,27.50
2018-08-16T01:06:57.706Z,27.73
2018-08-16T01:09:32.069Z,26.73
2018-08-16T01:12:05.786Z,29.80
2018-08-16T01:14:39.458Z,26.93
2018-08-16T01:17:13.490Z,28.23
2018-08-16T01:19:47.206Z,28.10
2018-08-16T01:22:20.790Z,27.17
2018-08-16T01:24:54.538Z,27.37
2018-08-16T01:27:28.124Z,28.03
2018-08-16T01:30:01.987Z,30.83
2018-08-16T01:32:36.049Z,29.07
2018-08-16T01:35:13.613Z,29.90
2018-08-16T01:37:47.175Z,28.73
2018-08-16T01:40:20.838Z,28.60
2018-08-16T01:42:55.127Z,30.10
2018-08-16T01:45:28.846Z,32.17
2018-08-16T01:48:03.062Z,33.40
2018-08-16T01:50:36.696Z,30.97
2018-08-16T01:53:10.643Z,32.27
2018-08-16T01:55:44.296Z,34.33
2018-08-16T01:58:17.897Z,34.87
2018-08-16T02:00:53.072Z,34.33
2018-08-16T02:03:26.647Z,35.30
2018-08-16T02:06:00.226Z,35.73
2018-08-16T02:08:33.729Z,37.27
2018-08-16T02:11:08.480Z,38.77
2018-08-16T02:13:43.081Z,39.00
2018-08-16T02:16:16.027Z,39.60
2018-08-16T02:18:48.957Z,40.17
2018-08-16T02:21:22.686Z,39.70
2018-08-16T02:23:55.591Z,39.83
2018-08-16T02:26:28.855Z,39.40
2018-08-16T02:29:01.881Z,37.50
2018-08-16T02:31:36.406Z,38.27
2018-08-16T02:34:09.497Z,39.00
2018-08-16T02:36:42.751Z,38.83
2018-08-16T02:39:15.753Z,40.63
2018-08-16T02:41:48.681Z,41.60
2018-08-16T02:44:21.872Z,40.43
2018-08-16T02:46:54.781Z,39.23
2018-08-16T02:49:28.853Z,40.20
2018-08-16T02:52:02.115Z,38.57
2018-08-16T02:54:35.149Z,38.20
2018-08-16T02:57:09.737Z,36.40
2018-08-16T02:59:43.574Z,38.50
2018-08-16T03:02:16.510Z,37.20
2018-08-16T03:04:49.335Z,35.00
2018-08-16T03:07:24.983Z,35.55
2018-08-16T03:10:00.275Z,36.30
2018-08-16T03:12:33.188Z,34.20
2018-08-16T03:15:06.146Z,35.70
2018-08-16T03:17:39.334Z,39.93
2018-08-16T03:20:12.478Z,39.37
2018-08-16T03:22:46.431Z,34.80
2018-08-16T03:25:19.289Z,38.73
2018-08-16T03:27:53.662Z,37.30
2018-08-16T03:30:26.620Z,38.43
2018-08-16T03:32:59.639Z,39.23
2018-08-16T03:35:32.567Z,39.20
2018-08-16T03:38:05.498Z,36.70
2018-08-16T03:40:52.956Z,36.03
2018-08-16T03:43:25.803Z,36.73
2018-08-16T03:45:58.634Z,37.20
2018-08-16T03:48:31.686Z,36.77
2018-08-16T03:51:04.611Z,34.83
2018-08-16T03:53:38.291Z,35.93
2018-08-16T03:56:11.401Z,33.63
2018-08-16T03:58:44.770Z,35.10
2018-08-16T04:01:17.703Z,33.87
2018-08-16T04:03:50.597Z,35.03
2018-08-16T04:06:23.477Z,33.63
2018-08-16T04:08:56.484Z,34.57
2018-08-16T04:11:30.808Z,33.47
2018-08-16T04:14:03.969Z,33.80
2018-08-16T04:16:36.812Z,34.00
2018-08-16T04:19:09.709Z,35.10
2018-08-16T04:21:42.565Z,33.30
2018-08-16T04:24:16.141Z,33.70
2018-08-16T04:26:49.105Z,32.07
2018-08-16T04:29:21.982Z,32.45
2018-08-16T04:31:54.912Z,31.90
2018-08-16T04:34:27.803Z,33.03
2018-08-16T04:37:00.904Z,32.87
2018-08-16T04:39:33.796Z,33.03
2018-08-16T04:42:06.904Z,31.25
2018-08-16T04:44:39.778Z,32.03
2018-08-16T04:47:12.743Z,31.30
2018-08-16T04:49:45.694Z,31.57
2018-08-16T04:52:19.709Z,31.57
2018-08-16T04:54:53.150Z,31.90
2018-08-16T04:57:26.139Z,32.17
2018-08-16T04:59:59.026Z,29.80
2018-08-16T05:02:31.960Z,32.53
2018-08-16T05:05:04.779Z,31.80
2018-08-16T05:07:39.279Z,29.67
2018-08-16T05:10:13.329Z,31.10
2018-08-16T05:12:46.209Z,30.27
2018-08-16T05:15:24.977Z,34.00
2018-08-16T05:17:57.854Z,31.67
2018-08-16T05:20:32.063Z,30.50
2018-08-16T05:23:04.842Z,32.23
2018-08-16T05:25:37.732Z,30.87
2018-08-16T05:28:11.785Z,31.37
2018-08-16T05:30:44.599Z,32.10
2018-08-16T05:33:17.929Z,29.63
2018-08-16T05:35:50.804Z,31.90
2018-08-16T05:38:24.607Z,31.90
2018-08-16T05:40:57.441Z,28.07
2018-08-16T05:43:30.364Z,29.65
2018-08-16T05:46:03.402Z,29.33
2018-08-16T05:48:36.195Z,28.10
2018-08-16T05:51:11.440Z,28.33
2018-08-16T05:53:44.317Z,28.60
2018-08-16T05:56:17.242Z,28.10
2018-08-16T05:58:52.666Z,27.27
2018-08-16T06:01:26.951Z,28.70
2018-08-16T06:04:00.643Z,27.75
2018-08-16T06:06:33.569Z,25.13
2018-08-16T06:09:07.077Z,26.60
2018-08-16T06:11:40.022Z,26.00
2018-08-16T06:14:12.977Z,27.60
2018-08-16T06:16:46.291Z,26.80
2018-08-16T06:19:19.268Z,26.33
2018-08-16T06:21:52.715Z,26.47
2018-08-16T06:24:25.594Z,26.15
2018-08-16T06:26:58.514Z,24.40
2018-08-16T06:29:31.479Z,26.07
2018-08-16T06:32:04.356Z,23.40
2018-08-16T06:34:37.522Z,23.47
2018-08-16T06:37:10.422Z,23.57
2018-08-16T06:39:43.792Z,24.47
2018-08-16T06:42:16.707Z,24.93
2018-08-16T06:44:49.663Z,26.03
2018-08-16T06:47:23.041Z,26.90
2018-08-16T06:49:55.906Z,25.57
2018-08-16T06:52:29.535Z,24.83
2018-08-16T06:55:02.843Z,24.50
2018-08-16T06:57:35.842Z,24.10
2018-08-16T07:00:09.737Z,23.73
2018-08-16T07:02:42.726Z,23.97
2018-08-16T07:05:17.167Z,22.60
2018-08-16T07:07:50.103Z,22.63
2018-08-16T07:10:22.984Z,22.23
2018-08-16T07:12:55.992Z,21.83
2018-08-16T07:15:29.998Z,21.07
2018-08-16T07:18:04.020Z,19.80
2018-08-16T07:20:36.891Z,21.40
2018-08-16T07:23:09.895Z,20.53
2018-08-16T07:25:42.851Z,20.43
2018-08-16T07:28:15.706Z,18.70
2018-08-16T07:30:48.985Z,19.03
2018-08-16T07:33:22.712Z,20.17
2018-08-16T07:35:56.738Z,18.00
2018-08-16T07:38:29.878Z,19.33
2018-08-16T07:41:02.735Z,17.90
2018-08-16T07:43:35.683Z,19.57
2018-08-16T07:46:10.773Z,18.27
2018-08-16T07:48:46.090Z,18.03
2018-08-16T07:51:20.567Z,19.00
2018-08-16T07:53:53.495Z,18.93
2018-08-16T07:56:26.542Z,18.93
2018-08-16T07:59:00.003Z,18.80
2018-08-16T08:01:34.035Z,18.40
2018-08-16T08:04:06.974Z,18.20
2018-08-16T08:06:40.914Z,18.93
2018-08-16T08:09:14.714Z,18.52
2018-08-16T08:11:48.697Z,19.47
2018-08-16T08:14:22.638Z,17.87
2018-08-16T08:16:55.567Z,17.60
2018-08-16T08:19:29.588Z,16.82
2018-08-16T08:22:02.752Z,16.70
2018-08-16T08:24:35.639Z,17.30
2018-08-16T08:27:10.334Z,16.83
2018-08-16T08:29:43.184Z,17.37
2018-08-16T08:32:18.406Z,14.80
2018-08-16T08:34:51.341Z,15.63
2018-08-16T08:37:33.252Z,16.37
2018-08-16T08:40:06.581Z,15.47
2018-08-16T08:42:39.597Z,14.73
2018-08-16T08:45:12.939Z,15.97
2018-08-16T08:47:49.536Z,15.23
2018-08-16T08:50:22.455Z,15.00
2018-08-16T08:52:55.542Z,13.93
2018-08-16T08:55:37.427Z,14.55
2018-08-16T08:58:21.927Z,13.40
2018-08-16T09:00:54.822Z,13.30
2018-08-16T09:03:27.741Z,14.60
2018-08-16T09:06:00.660Z,14.27
2018-08-16T09:08:33.601Z,12.67
2018-08-16T09:11:18.680Z,12.70
2018-08-16T09:14:04.610Z,13.80
2018-08-16T09:16:43.962Z,12.80
2018-08-16T09:19:16.977Z,12.83
2018-08-16T09:21:49.868Z,12.90
2018-08-16T09:24:23.381Z,11.50
2018-08-16T09:26:56.207Z,12.10
2018-08-16T09:30:13.440Z,11.97
2018-08-16T09:32:55.455Z,11.93
2018-08-16T09:35:29.417Z,12.10
2018-08-16T09:38:03.207Z,11.20
2018-08-16T09:40:36.604Z,11.87
2018-08-16T09:43:10.462Z,12.40
2018-08-16T09:45:55.375Z,10.87
2018-08-16T09:48:37.081Z,11.23
2018-08-16T09:51:09.928Z,11.40
2018-08-16T09:53:42.894Z,10.87
2018-08-16T09:56:16.850Z,11.27
2018-08-16T09:58:50.409Z,11.80
2018-08-16T10:01:23.374Z,11.57
2018-08-16T10:03:56.280Z,11.20
2018-08-16T10:06:31.518Z,10.27
2018-08-16T10:09:04.730Z,11.17
2018-08-16T10:11:38.138Z,12.30
2018-08-16T10:14:11.019Z,11.90
2018-08-16T10:16:44.412Z,11.37
2018-08-16T10:19:17.400Z,10.70
2018-08-16T10:21:50.374Z,10.63
2018-08-16T10:24:23.309Z,10.20
2018-08-16T10:26:56.232Z,10.43
2018-08-16T10:29:29.766Z,11.27
2018-08-16T10:32:03.377Z,11.00
2018-08-16T10:34:36.295Z,10.87
2018-08-16T10:37:10.134Z,9.87
2018-08-16T10:39:43.069Z,9.70
2018-08-16T10:42:16.761Z,10.70
2018-08-16T10:44:49.628Z,10.43
2018-08-16T10:47:22.852Z,10.38
2018-08-16T10:49:55.685Z,11.23
2018-08-16T10:52:28.682Z,10.87
2018-08-16T10:55:01.554Z,10.00
2018-08-16T10:57:34.515Z,10.17
2018-08-16T11:00:08.576Z,10.10
2018-08-16T11:02:41.465Z,10.00
2018-08-16T11:05:14.868Z,10.00
2018-08-16T11:07:47.723Z,11.23
2018-08-16T11:10:20.538Z,10.13
2018-08-16T11:12:54.163Z,10.50
2018-08-16T11:15:27.077Z,10.05
2018-08-16T11:17:59.959Z,9.67
2018-08-16T11:20:32.987Z,9.53
2018-08-16T11:23:05.974Z,9.40
2018-08-16T11:25:39.231Z,11.00
2018-08-16T11:28:12.159Z,10.07
2018-08-16T11:30:45.435Z,9.57
2018-08-16T11:33:18.479Z,10.60
2018-08-16T11:35:51.434Z,9.70
2018-08-16T11:38:24.451Z,10.30
2018-08-16T11:40:58.059Z,9.50
2018-08-16T11:43:31.030Z,10.23
2018-08-16T11:46:05.027Z,10.63
2018-08-16T11:48:37.829Z,9.30
2018-08-16T11:51:10.922Z,10.37
2018-08-16T11:53:43.806Z,9.03
2018-08-16T11:56:16.926Z,9.33
2018-08-16T11:58:50.017Z,9.87
2018-08-16T12:01:23.051Z,10.50
2018-08-16T12:03:56.412Z,9.83
2018-08-16T12:06:30.207Z,9.33
2018-08-16T12:09:03.786Z,11.13
2018-08-16T12:11:36.858Z,10.50
2018-08-16T12:14:11.229Z,10.43
2018-08-16T12:16:44.085Z,9.90
2018-08-16T12:19:17.103Z,9.23
2018-08-16T12:21:50.905Z,9.67
2018-08-16T12:24:23.754Z,9.75
2018-08-16T12:26:57.240Z,9.17
2018-08-16T12:29:30.187Z,9.70
2018-08-16T12:32:03.206Z,10.03
2018-08-16T12:34:36.554Z,8.83
2018-08-16T12:37:09.476Z,8.97
2018-08-16T12:39:42.730Z,9.47
2018-08-16T12:42:15.928Z,8.60
2018-08-16T12:44:48.987Z,8.67
2018-08-16T12:47:22.050Z,9.13
2018-08-16T12:49:55.106Z,8.37
2018-08-16T12:52:28.496Z,8.33
2018-08-16T12:55:01.365Z,8.33
2018-08-16T12:57:34.550Z,7.93
2018-08-16T13:00:07.959Z,5.73
2018-08-16T13:02:40.892Z,5.80
2018-08-16T13:05:14.761Z,6.90
2018-08-16T13:07:47.801Z,6.10
2018-08-16T13:10:21.569Z,5.60
2018-08-16T13:12:54.650Z,6.30
2018-08-16T13:15:27.588Z,5.70
2018-08-16T13:18:00.573Z,5.30
2018-08-16T13:20:33.586Z,5.40
2018-08-16T13:23:06.953Z,5.40
2018-08-16T13:25:39.990Z,5.30
2018-08-16T13:28:12.860Z,4.60
2018-08-16T13:30:45.761Z,5.17
2018-08-16T13:33:18.719Z,5.07
2018-08-16T13:35:51.556Z,4.87
2018-08-16T13:38:24.492Z,4.33
2018-08-16T13:40:58.555Z,4.73
2018-08-16T13:43:31.578Z,4.77
2018-08-16T13:46:04.455Z,5.10
2018-08-16T13:48:37.436Z,5.00
2018-08-16T13:51:10.361Z,4.73
2018-08-16T13:53:45.522Z,4.60
2018-08-16T13:56:18.522Z,3.80
2018-08-16T13:58:52.481Z,4.80
2018-08-16T14:01:25.420Z,3.90
2018-08-16T14:03:58.840Z,5.00
2018-08-16T14:06:33.210Z,4.65
2018-08-16T14:09:06.458Z,4.17
2018-08-16T14:11:39.470Z,4.60
2018-08-16T14:14:12.806Z,4.03
2018-08-16T14:16:45.942Z,3.73
2018-08-16T14:19:19.225Z,4.72
2018-08-16T14:21:53.193Z,4.27
2018-08-16T14:24:26.614Z,4.10
2018-08-16T14:26:59.645Z,3.60
2018-08-16T14:29:32.675Z,3.92
2018-08-16T14:32:06.149Z,3.40
2018-08-16T14:34:39.659Z,4.30
2018-08-16T14:37:15.418Z,3.30
2018-08-16T14:39:48.808Z,3.80
2018-08-16T14:42:22.225Z,3.17
2018-08-16T14:44:55.755Z,3.23
2018-08-16T14:47:35.366Z,3.17
2018-08-16T14:50:09.505Z,2.90
2018-08-16T14:52:42.509Z,4.17
2018-08-16T14:55:16.060Z,3.50
2018-08-16T14:57:49.077Z,3.30
2018-08-16T15:00:22.090Z,3.98
2018-08-16T15:02:56.368Z,3.17
2018-08-16T15:05:29.270Z,3.00
2018-08-16T15:08:02.575Z,3.30
2018-08-16T15:10:35.627Z,3.90
2018-08-16T15:13:08.674Z,3.17
2018-08-16T15:15:41.606Z,2.75
2018-08-16T15:18:15.086Z,2.80
2018-08-16T15:20:48.336Z,2.87
2018-08-16T15:23:22.091Z,2.75
2018-08-16T15:25:55.726Z,2.80
2018-08-16T15:28:28.700Z,2.60
2018-08-16T15:31:01.509Z,3.00
2018-08-16T15:33:35.204Z,3.03
2018-08-16T15:36:08.101Z,2.13
2018-08-16T15:38:41.623Z,2.23
2018-08-16T15:41:14.757Z,2.30
2018-08-16T15:43:47.599Z,2.73
2018-08-16T15:46:20.867Z,2.80
2018-08-16T15:48:53.853Z,2.20
2018-08-16T15:51:28.328Z,2.77
2018-08-16T15:54:01.258Z,2.43
2018-08-16T15:56:34.195Z,2.87
2018-08-16T15:59:07.138Z,1.90
2018-08-16T16:01:40.194Z,2.83
2018-08-16T16:04:13.347Z,2.40
2018-08-16T16:06:46.167Z,2.30
2018-08-16T16:09:19.507Z,2.40
2018-08-16T16:11:53.411Z,2.13
2018-08-16T16:14:27.662Z,2.60
2018-08-16T16:17:00.616Z,2.30
2018-08-16T16:19:34.778Z,1.80
2018-08-16T16:22:08.136Z,2.13
2018-08-16T16:24:41.038Z,1.90
2018-08-16T16:27:14.695Z,1.80
2018-08-16T16:29:47.574Z,1.87
2018-08-16T16:32:20.986Z,1.77
2018-08-16T16:34:54.298Z,2.20
2018-08-16T16:37:27.216Z,1.90
2018-08-16T16:40:00.088Z,1.83
2018-08-16T16:42:33.806Z,2.20
2018-08-16T16:45:06.856Z,1.83
2018-08-16T16:47:40.966Z,1.93
2018-08-16T16:50:13.880Z,2.00
2018-08-16T16:52:48.426Z,1.90
2018-08-16T16:55:22.910Z,1.70
2018-08-16T16:57:55.820Z,2.10
2018-08-16T17:00:29.926Z,1.80
2018-08-16T17:03:02.943Z,2.07
2018-08-16T17:05:36.292Z,2.37
2018-08-16T17:08:09.306Z,2.10
2018-08-16T17:10:42.332Z,1.83
2018-08-16T17:13:15.298Z,2.10
2018-08-16T17:15:48.284Z,1.73
2018-08-16T17:18:21.268Z,1.60
2018-08-16T17:20:55.362Z,1.80
2018-08-16T17:23:28.382Z,1.67
2018-08-16T17:26:01.539Z,1.90
2018-08-16T17:28:34.579Z,2.00
2018-08-16T17:31:08.950Z,1.30
2018-08-16T17:33:41.896Z,1.57
2018-08-16T17:36:16.007Z,1.60
2018-08-16T17:38:49.945Z,1.67
2018-08-16T17:41:22.894Z,1.77
2018-08-16T17:43:55.837Z,1.93
2018-08-16T17:46:30.761Z,1.83
2018-08-16T17:49:05.502Z,1.67
2018-08-16T17:51:38.522Z,1.50
2018-08-16T17:54:11.507Z,1.60
2018-08-16T17:56:44.458Z,1.40
2018-08-16T17:59:17.444Z,1.67
2018-08-16T18:01:50.504Z,1.60
2018-08-16T18:04:24.298Z,1.20
2018-08-16T18:06:57.234Z,1.83
2018-08-16T18:09:30.222Z,1.50
2018-08-16T18:12:03.123Z,1.60
2018-08-16T18:14:35.935Z,1.50
2018-08-16T18:17:08.899Z,1.80
2018-08-16T18:19:42.034Z,1.63
2018-08-16T18:22:14.967Z,1.50
2018-08-16T18:24:47.986Z,1.57
2018-08-16T18:27:20.958Z,1.60
2018-08-16T18:29:54.770Z,1.63
2018-08-16T18:32:29.072Z,1.70
2018-08-16T18:35:01.962Z,1.80
2018-08-16T18:37:34.910Z,1.80
2018-08-16T18:40:08.186Z,1.77
2018-08-16T18:42:41.146Z,1.30
2018-08-16T18:45:15.010Z,1.60
2018-08-16T18:47:48.230Z,1.77
2018-08-16T18:50:21.148Z,1.57
2018-08-16T18:52:54.030Z,1.40
2018-08-16T18:55:26.994Z,1.60
2018-08-16T18:57:59.885Z,1.50
2018-08-16T19:00:37.471Z,1.50
2018-08-16T19:03:10.872Z,1.40
2018-08-16T19:05:43.959Z,1.70
2018-08-16T19:08:16.859Z,1.40
2018-08-16T19:10:49.727Z,1.60
2018-08-16T19:13:22.686Z,1.12
2018-08-16T19:15:56.898Z,1.40
2018-08-16T19:18:29.780Z,1.73
2018-08-16T19:21:02.733Z,1.67
2018-08-16T19:23:37.782Z,1.83
2018-08-16T19:26:10.686Z,1.40
2018-08-16T19:28:43.947Z,1.60
2018-08-16T19:31:16.849Z,1.63
2018-08-16T19:33:49.706Z,1.60
2018-08-16T19:36:22.696Z,1.45
2018-08-16T19:38:56.301Z,1.37
2018-08-16T19:41:30.469Z,1.40
2018-08-16T19:44:03.476Z,1.13
2018-08-16T19:46:36.862Z,1.40
2018-08-16T19:49:10.030Z,1.80
2018-08-16T19:51:43.014Z,1.43
2018-08-16T19:54:15.830Z,1.60
2018-08-16T19:56:48.745Z,1.60
2018-08-16T19:59:22.301Z,1.60
2018-08-16T20:01:55.180Z,2.20
2018-08-16T20:04:28.040Z,2.23
2018-08-16T20:07:01.051Z,2.10
2018-08-16T20:09:34.011Z,1.83
2018-08-16T20:12:08.117Z,2.10
2018-08-16T20:14:41.940Z,2.40
2018-08-16T20:17:16.226Z,2.67
2018-08-16T20:19:49.059Z,2.23
2018-08-16T20:22:22.835Z,2.73
2018-08-16T20:24:55.756Z,2.20
2018-08-16T20:27:29.263Z,2.57
2018-08-16T20:30:02.492Z,3.40
2018-08-16T20:32:35.387Z,3.03
2018-08-16T20:35:09.897Z,3.43
2018-08-16T20:37:42.908Z,3.00
2018-08-16T20:40:15.847Z,3.13
2018-08-16T20:42:50.412Z,3.43
2018-08-16T20:45:23.487Z,2.97
2018-08-16T20:47:56.388Z,3.80
2018-08-16T20:50:29.381Z,3.93
2018-08-16T20:53:02.271Z,3.77
2018-08-16T20:55:35.785Z,4.10
2018-08-16T20:58:08.732Z,3.83
2018-08-16T21:00:41.938Z,4.13
2018-08-16T21:03:14.979Z,4.90
2018-08-16T21:05:47.867Z,4.50
2018-08-16T21:08:20.897Z,4.70
2018-08-16T21:10:53.761Z,4.33
2018-08-16T21:13:28.181Z,4.78
2018-08-16T21:18:39.112Z,5.30
2018-08-16T21:21:12.008Z,5.50
2018-08-16T21:23:44.859Z,4.90
2018-08-16T21:26:18.160Z,5.03
2018-08-16T21:28:51.225Z,4.30
2018-08-16T21:31:25.950Z,5.17
2018-08-16T21:33:58.813Z,5.20
2018-08-16T21:36:32.762Z,5.27
2018-08-16T21:39:05.890Z,4.93
2018-08-16T21:41:38.901Z,4.80
2018-08-16T21:44:13.563Z,5.33
2018-08-16T21:46:46.435Z,5.80
2018-08-16T21:49:19.386Z,5.17
2018-08-16T21:51:53.211Z,5.67
2018-08-16T21:54:26.205Z,5.40
2018-08-16T21:56:59.565Z,5.60
2018-08-16T21:59:32.506Z,5.12
2018-08-16T22:02:06.621Z,5.33
2018-08-16T22:04:39.529Z,4.80
2018-08-16T22:08:16.628Z,5.10
2018-08-16T22:10:49.484Z,5.67
2018-08-16T22:13:23.239Z,5.50
2018-08-16T22:15:56.217Z,5.10
2018-08-16T22:18:31.789Z,6.08
2018-08-16T22:21:04.769Z,4.97
2018-08-16T22:23:37.704Z,5.10
2018-08-16T22:26:10.676Z,4.90
2018-08-16T22:28:43.652Z,5.43
2018-08-16T22:31:16.581Z,4.37
2018-08-16T22:33:49.582Z,4.50
2018-08-16T22:36:22.995Z,5.90
2018-08-16T22:38:56.040Z,5.00
2018-08-16T22:41:29.880Z,5.33
2018-08-16T22:44:02.735Z,5.83
2018-08-16T22:46:35.656Z,4.50
2018-08-16T22:49:08.912Z,4.67
2018-08-16T22:51:43.515Z,5.00
2018-08-16T22:54:16.402Z,4.53
2018-08-16T22:56:49.315Z,5.37
2018-08-16T22:59:22.191Z,5.50
2018-08-16T23:01:55.312Z,4.10
2018-08-16T23:04:28.293Z,5.60
2018-08-16T23:07:01.717Z,4.87
2018-08-16T23:09:34.683Z,5.27
2018-08-16T23:12:08.551Z,5.67
2018-08-16T23:14:41.519Z,5.60
2018-08-16T23:17:15.023Z,4.45
2018-08-16T23:19:48.594Z,5.60
2018-08-16T23:22:21.593Z,4.80
2018-08-16T23:24:54.519Z,5.40
2018-08-16T23:27:27.388Z,4.90
2018-08-16T23:30:00.391Z,4.10
2018-08-16T23:32:33.642Z,4.70
2018-08-16T23:35:07.315Z,4.67
2018-08-16T23:37:40.214Z,5.20
2018-08-16T23:40:15.425Z,5.00
2018-08-16T23:42:48.298Z,4.70
2018-08-16T23:45:21.754Z,6.47
2018-08-16T23:49:01.042Z,5.60
2018-08-16T23:51:33.971Z,5.10
2018-08-16T23:54:08.757Z,5.20
2018-08-16T23:56:41.753Z,5.43
2018-08-16T23:59:14.865Z,5.17
